sensor_id;sensor_type;location;lat;lon;timestamp;pressure;altitude;pressure_sealevel;temperature;humidity
58385;BME280;44185;47.844;8.966;2023-10-09T00:01:56;96952.53;;;9.73;100.00
58385;BME280;44185;47.844;8.966;2023-10-09T00:04:21;96952.03;;;9.68;100.00
58385;BME280;44185;47.844;8.966;2023-10-09T00:06:47;96958.97;;;9.69;100.00
58385;BME280;44185;47.844;8.966;2023-10-09T00:09:12;96959.75;;;9.71;100.00
58385;BME280;44185;47.844;8.966;2023-10-09T00:11:38;96959.94;;;9.68;100.00
58385;BME280;44185;47.844;8.966;2023-10-09T00:14:03;96957.66;;;9.63;100.00
58385;BME280;44185;47.844;8.966;2023-10-09T00:16:29;96952.56;;;9.60;100.00
58385;BME280;44185;47.844;8.966;2023-10-09T00:18:56;96954.25;;;9.61;100.00
58385;BME280;44185;47.844;8.966;2023-10-09T00:21:21;96958.69;;;9.61;100.00
58385;BME280;44185;47.844;8.966;2023-10-09T00:23:47;96948.75;;;9.64;100.00
58385;BME280;44185;47.844;8.966;2023-10-09T00:26:12;96947.81;;;9.52;100.00
58385;BME280;44185;47.844;8.966;2023-10-09T00:28:38;96944.34;;;9.39;100.00
58385;BME280;44185;47.844;8.966;2023-10-09T00:31:04;96942.97;;;9.33;100.00
58385;BME280;44185;47.844;8.966;2023-10-09T00:33:30;96946.38;;;9.09;100.00
58385;BME280;44185;47.844;8.966;2023-10-09T00:35:56;96937.78;;;9.18;100.00
58385;BME280;44185;47.844;8.966;2023-10-09T00:38:22;96939.94;;;9.26;100.00
58385;BME280;44185;47.844;8.966;2023-10-09T00:40:47;96935.91;;;9.33;100.00
58385;BME280;44185;47.844;8.966;2023-10-09T00:43:13;96930.50;;;9.35;100.00
58385;BME280;44185;47.844;8.966;2023-10-09T00:45:39;96932.81;;;9.40;100.00
58385;BME280;44185;47.844;8.966;2023-10-09T00:48:06;96928.06;;;9.45;100.00
58385;BME280;44185;47.844;8.966;2023-10-09T00:50:31;96921.09;;;9.44;100.00
58385;BME280;44185;47.844;8.966;2023-10-09T00:52:58;96924.69;;;9.43;100.00
58385;BME280;44185;47.844;8.966;2023-10-09T00:55:24;96928.91;;;9.45;100.00
58385;BME280;44185;47.844;8.966;2023-10-09T00:57:51;96928.84;;;9.34;100.00
58385;BME280;44185;47.844;8.966;2023-10-09T01:00:17;96919.22;;;9.33;100.00
58385;BME280;44185;47.844;8.966;2023-10-09T01:02:43;96920.91;;;9.34;100.00
58385;BME280;44185;47.844;8.966;2023-10-09T01:05:09;96922.56;;;9.35;100.00
58385;BME280;44185;47.844;8.966;2023-10-09T01:07:36;96924.69;;;9.30;100.00
58385;BME280;44185;47.844;8.966;2023-10-09T01:10:05;96912.13;;;9.33;100.00
58385;BME280;44185;47.844;8.966;2023-10-09T01:12:31;96915.19;;;9.27;100.00
58385;BME280;44185;47.844;8.966;2023-10-09T01:14:57;96915.63;;;9.21;100.00
58385;BME280;44185;47.844;8.966;2023-10-09T01:17:22;96911.19;;;9.21;100.00
58385;BME280;44185;47.844;8.966;2023-10-09T01:19:48;96912.47;;;9.29;100.00
58385;BME280;44185;47.844;8.966;2023-10-09T01:22:13;96905.16;;;9.19;100.00
58385;BME280;44185;47.844;8.966;2023-10-09T01:24:40;96907.81;;;9.06;100.00
58385;BME280;44185;47.844;8.966;2023-10-09T01:27:06;96906.66;;;8.97;100.00
58385;BME280;44185;47.844;8.966;2023-10-09T01:29:32;96899.38;;;8.75;100.00
58385;BME280;44185;47.844;8.966;2023-10-09T01:31:57;96900.84;;;8.79;100.00
58385;BME280;44185;47.844;8.966;2023-10-09T01:34:24;96889.88;;;8.85;100.00
58385;BME280;44185;47.844;8.966;2023-10-09T01:36:51;96897.66;;;8.87;100.00
58385;BME280;44185;47.844;8.966;2023-10-09T01:39:16;96894.22;;;8.86;100.00
58385;BME280;44185;47.844;8.966;2023-10-09T01:41:43;96891.47;;;8.88;100.00
58385;BME280;44185;47.844;8.966;2023-10-09T01:44:09;96890.06;;;8.82;100.00
58385;BME280;44185;47.844;8.966;2023-10-09T01:46:34;96887.75;;;8.77;100.00
58385;BME280;44185;47.844;8.966;2023-10-09T01:48:59;96888.50;;;8.79;100.00
58385;BME280;44185;47.844;8.966;2023-10-09T01:51:25;96889.22;;;8.82;100.00
58385;BME280;44185;47.844;8.966;2023-10-09T01:53:50;96887.63;;;8.66;100.00
58385;BME280;44185;47.844;8.966;2023-10-09T01:56:16;96885.81;;;8.53;100.00
58385;BME280;44185;47.844;8.966;2023-10-09T01:58:43;96888.31;;;8.55;100.00
58385;BME280;44185;47.844;8.966;2023-10-09T02:01:09;96885.13;;;8.64;100.00
58385;BME280;44185;47.844;8.966;2023-10-09T02:03:34;96887.63;;;8.66;100.00
58385;BME280;44185;47.844;8.966;2023-10-09T02:05:59;96881.94;;;8.72;100.00
58385;BME280;44185;47.844;8.966;2023-10-09T02:08:25;96888.69;;;8.76;100.00
58385;BME280;44185;47.844;8.966;2023-10-09T02:10:50;96882.38;;;8.79;100.00
58385;BME280;44185;47.844;8.966;2023-10-09T02:13:16;96885.13;;;8.77;100.00
58385;BME280;44185;47.844;8.966;2023-10-09T02:15:43;96891.44;;;8.75;100.00
58385;BME280;44185;47.844;8.966;2023-10-09T02:18:09;96890.81;;;8.71;100.00
58385;BME280;44185;47.844;8.966;2023-10-09T02:20:35;96884.78;;;8.69;100.00
58385;BME280;44185;47.844;8.966;2023-10-09T02:23:01;96885.31;;;8.74;100.00
58385;BME280;44185;47.844;8.966;2023-10-09T02:25:26;96879.34;;;8.57;100.00
58385;BME280;44185;47.844;8.966;2023-10-09T02:27:52;96873.19;;;8.59;100.00
58385;BME280;44185;47.844;8.966;2023-10-09T02:30:17;96879.91;;;8.63;100.00
58385;BME280;44185;47.844;8.966;2023-10-09T02:32:44;96872.28;;;8.58;100.00
58385;BME280;44185;47.844;8.966;2023-10-09T02:35:10;96873.59;;;8.65;100.00
58385;BME280;44185;47.844;8.966;2023-10-09T02:37:35;96879.63;;;8.67;100.00
58385;BME280;44185;47.844;8.966;2023-10-09T02:40:01;96869.38;;;8.63;100.00
58385;BME280;44185;47.844;8.966;2023-10-09T02:42:26;96872.53;;;8.68;100.00
58385;BME280;44185;47.844;8.966;2023-10-09T02:44:52;96879.91;;;8.63;100.00
58385;BME280;44185;47.844;8.966;2023-10-09T02:47:18;96874.19;;;8.56;100.00
58385;BME280;44185;47.844;8.966;2023-10-09T02:49:45;96871.16;;;8.49;100.00
58385;BME280;44185;47.844;8.966;2023-10-09T02:52:10;96863.34;;;8.61;100.00
58385;BME280;44185;47.844;8.966;2023-10-09T02:54:36;96860.50;;;8.64;100.00
58385;BME280;44185;47.844;8.966;2023-10-09T02:57:01;96862.22;;;8.65;100.00
58385;BME280;44185;47.844;8.966;2023-10-09T02:59:27;96861.03;;;8.69;100.00
58385;BME280;44185;47.844;8.966;2023-10-09T03:01:52;96864.22;;;8.61;100.00
58385;BME280;44185;47.844;8.966;2023-10-09T03:04:18;96852.34;;;8.41;100.00
58385;BME280;44185;47.844;8.966;2023-10-09T03:06:45;96855.81;;;8.41;100.00
58385;BME280;44185;47.844;8.966;2023-10-09T03:09:10;96856.84;;;8.39;100.00
58385;BME280;44185;47.844;8.966;2023-10-09T03:11:36;96848.47;;;8.47;100.00
58385;BME280;44185;47.844;8.966;2023-10-09T03:14:01;96850.03;;;8.49;100.00
58385;BME280;44185;47.844;8.966;2023-10-09T03:16:26;96847.28;;;8.38;100.00
58385;BME280;44185;47.844;8.966;2023-10-09T03:18:52;96849.06;;;8.37;100.00
58385;BME280;44185;47.844;8.966;2023-10-09T03:21:18;96849.72;;;8.41;100.00
58385;BME280;44185;47.844;8.966;2023-10-09T03:23:46;96847.69;;;8.44;100.00
58385;BME280;44185;47.844;8.966;2023-10-09T03:26:11;96849.47;;;8.31;100.00
58385;BME280;44185;47.844;8.966;2023-10-09T03:28:37;96846.22;;;8.27;100.00
58385;BME280;44185;47.844;8.966;2023-10-09T03:31:02;96846.09;;;8.29;100.00
58385;BME280;44185;47.844;8.966;2023-10-09T03:33:27;96843.03;;;8.22;100.00
58385;BME280;44185;47.844;8.966;2023-10-09T03:35:53;96849.56;;;8.29;100.00
58385;BME280;44185;47.844;8.966;2023-10-09T03:38:18;96848.72;;;8.29;100.00
58385;BME280;44185;47.844;8.966;2023-10-09T03:40:45;96844.63;;;8.25;100.00
58385;BME280;44185;47.844;8.966;2023-10-09T03:43:11;96839.22;;;8.26;100.00
58385;BME280;44185;47.844;8.966;2023-10-09T03:45:36;96843.56;;;8.27;100.00
58385;BME280;44185;47.844;8.966;2023-10-09T03:48:02;96847.56;;;8.20;100.00
58385;BME280;44185;47.844;8.966;2023-10-09T03:50:27;96837.97;;;8.19;100.00
58385;BME280;44185;47.844;8.966;2023-10-09T03:52:53;96838.50;;;8.24;100.00
58385;BME280;44185;47.844;8.966;2023-10-09T03:55:18;96840.19;;;8.25;100.00
58385;BME280;44185;47.844;8.966;2023-10-09T03:57:45;96838.88;;;8.18;100.00
58385;BME280;44185;47.844;8.966;2023-10-09T04:00:11;96838.88;;;8.05;100.00
58385;BME280;44185;47.844;8.966;2023-10-09T04:02:37;96830.69;;;8.09;100.00
58385;BME280;44185;47.844;8.966;2023-10-09T04:05:03;96833.94;;;8.13;100.00
58385;BME280;44185;47.844;8.966;2023-10-09T04:07:28;96831.22;;;8.15;100.00
58385;BME280;44185;47.844;8.966;2023-10-09T04:09:54;96839.66;;;8.20;100.00
58385;BME280;44185;47.844;8.966;2023-10-09T04:12:19;96833.63;;;8.18;100.00
58385;BME280;44185;47.844;8.966;2023-10-09T04:14:46;96837.31;;;8.28;100.00
58385;BME280;44185;47.844;8.966;2023-10-09T04:17:11;96836.91;;;8.21;100.00
58385;BME280;44185;47.844;8.966;2023-10-09T04:19:37;96834.50;;;8.31;100.00
58385;BME280;44185;47.844;8.966;2023-10-09T04:22:02;96843.44;;;8.29;100.00
58385;BME280;44185;47.844;8.966;2023-10-09T04:24:28;96832.81;;;8.17;100.00
58385;BME280;44185;47.844;8.966;2023-10-09T04:26:53;96835.19;;;8.07;100.00
58385;BME280;44185;47.844;8.966;2023-10-09T04:29:18;96836.69;;;8.11;100.00
58385;BME280;44185;47.844;8.966;2023-10-09T04:31:46;96837.63;;;8.10;100.00
58385;BME280;44185;47.844;8.966;2023-10-09T04:34:11;96828.84;;;8.10;100.00
58385;BME280;44185;47.844;8.966;2023-10-09T04:36:37;96829.66;;;8.25;100.00
58385;BME280;44185;47.844;8.966;2023-10-09T04:39:02;96833.34;;;8.36;100.00
58385;BME280;44185;47.844;8.966;2023-10-09T04:41:28;96834.09;;;8.38;100.00
58385;BME280;44185;47.844;8.966;2023-10-09T04:43:53;96834.19;;;8.36;100.00
58385;BME280;44185;47.844;8.966;2023-10-09T04:46:19;96828.81;;;8.38;100.00
58385;BME280;44185;47.844;8.966;2023-10-09T04:48:45;96832.19;;;8.40;100.00
58385;BME280;44185;47.844;8.966;2023-10-09T04:51:11;96829.53;;;8.40;100.00
58385;BME280;44185;47.844;8.966;2023-10-09T04:53:39;96832.72;;;8.45;100.00
58385;BME280;44185;47.844;8.966;2023-10-09T04:56:05;96833.69;;;8.44;100.00
58385;BME280;44185;47.844;8.966;2023-10-09T04:58:31;96827.44;;;8.45;100.00
58385;BME280;44185;47.844;8.966;2023-10-09T05:00:56;96836.09;;;8.47;100.00
58385;BME280;44185;47.844;8.966;2023-10-09T05:03:22;96830.59;;;8.50;100.00
58385;BME280;44185;47.844;8.966;2023-10-09T05:05:48;96836.00;;;8.49;100.00
58385;BME280;44185;47.844;8.966;2023-10-09T05:08:15;96821.03;;;8.49;100.00
58385;BME280;44185;47.844;8.966;2023-10-09T05:10:41;96836.22;;;8.45;100.00
58385;BME280;44185;47.844;8.966;2023-10-09T05:13:06;96837.25;;;8.43;100.00
58385;BME280;44185;47.844;8.966;2023-10-09T05:15:31;96837.78;;;8.35;100.00
58385;BME280;44185;47.844;8.966;2023-10-09T05:17:57;96832.19;;;8.40;100.00
58385;BME280;44185;47.844;8.966;2023-10-09T05:20:22;96834.19;;;8.36;100.00
58385;BME280;44185;47.844;8.966;2023-10-09T05:22:49;96835.13;;;8.35;100.00
58385;BME280;44185;47.844;8.966;2023-10-09T05:25:15;96835.75;;;8.39;100.00
58385;BME280;44185;47.844;8.966;2023-10-09T05:27:41;96834.63;;;8.43;100.00
58385;BME280;44185;47.844;8.966;2023-10-09T05:30:07;96844.00;;;8.47;100.00
58385;BME280;44185;47.844;8.966;2023-10-09T05:32:33;96845.59;;;8.50;100.00
58385;BME280;44185;47.844;8.966;2023-10-09T05:34:58;96843.91;;;8.49;100.00
58385;BME280;44185;47.844;8.966;2023-10-09T05:37:24;96832.72;;;8.45;100.00
58385;BME280;44185;47.844;8.966;2023-10-09T05:39:52;96834.50;;;8.44;100.00
58385;BME280;44185;47.844;8.966;2023-10-09T05:42:17;96832.72;;;8.45;100.00
58385;BME280;44185;47.844;8.966;2023-10-09T05:44:43;96834.72;;;8.41;100.00
58385;BME280;44185;47.844;8.966;2023-10-09T05:47:09;96834.81;;;8.40;100.00
58385;BME280;44185;47.844;8.966;2023-10-09T05:49:34;96840.22;;;8.38;100.00
58385;BME280;44185;47.844;8.966;2023-10-09T05:51:59;96841.69;;;8.42;100.00
58385;BME280;44185;47.844;8.966;2023-10-09T05:54:25;96839.56;;;8.34;100.00
58385;BME280;44185;47.844;8.966;2023-10-09T05:56:52;96838.41;;;8.39;100.00
58385;BME280;44185;47.844;8.966;2023-10-09T05:59:17;96845.25;;;8.41;100.00
58385;BME280;44185;47.844;8.966;2023-10-09T06:01:42;96848.31;;;8.35;100.00
58385;BME280;44185;47.844;8.966;2023-10-09T06:04:08;96858.16;;;8.46;100.00
58385;BME280;44185;47.844;8.966;2023-10-09T06:06:33;96849.28;;;8.47;100.00
58385;BME280;44185;47.844;8.966;2023-10-09T06:09:00;96854.25;;;8.52;100.00
58385;BME280;44185;47.844;8.966;2023-10-09T06:11:26;96860.06;;;8.57;100.00
58385;BME280;44185;47.844;8.966;2023-10-09T06:13:53;96851.66;;;8.65;100.00
58385;BME280;44185;47.844;8.966;2023-10-09T06:16:18;96846.47;;;8.76;100.00
58385;BME280;44185;47.844;8.966;2023-10-09T06:18:44;96850.41;;;8.84;100.00
58385;BME280;44185;47.844;8.966;2023-10-09T06:21:09;96859.97;;;8.98;100.00
58385;BME280;44185;47.844;8.966;2023-10-09T06:23:35;96863.66;;;9.08;100.00
58385;BME280;44185;47.844;8.966;2023-10-09T06:26:01;96872.63;;;9.19;100.00
58385;BME280;44185;47.844;8.966;2023-10-09T06:28:26;96873.66;;;9.29;100.00
58385;BME280;44185;47.844;8.966;2023-10-09T06:30:53;96868.34;;;9.42;100.00
58385;BME280;44185;47.844;8.966;2023-10-09T06:33:18;96867.59;;;9.53;100.00
58385;BME280;44185;47.844;8.966;2023-10-09T06:35:44;96867.03;;;9.61;100.00
58385;BME280;44185;47.844;8.966;2023-10-09T06:38:10;96865.94;;;9.77;100.00
58385;BME280;44185;47.844;8.966;2023-10-09T06:40:38;96864.28;;;9.87;100.00
58385;BME280;44185;47.844;8.966;2023-10-09T06:43:03;96863.28;;;10.01;100.00
58385;BME280;44185;47.844;8.966;2023-10-09T06:45:29;96870.22;;;10.16;100.00
58385;BME280;44185;47.844;8.966;2023-10-09T06:47:56;96878.06;;;10.29;100.00
58385;BME280;44185;47.844;8.966;2023-10-09T06:50:22;96870.91;;;10.42;100.00
58385;BME280;44185;47.844;8.966;2023-10-09T06:52:48;96877.50;;;10.61;100.00
58385;BME280;44185;47.844;8.966;2023-10-09T06:55:14;96874.63;;;10.76;100.00
58385;BME280;44185;47.844;8.966;2023-10-09T06:57:39;96883.66;;;10.96;100.00
58385;BME280;44185;47.844;8.966;2023-10-09T07:00:06;96882.59;;;11.22;100.00
58385;BME280;44185;47.844;8.966;2023-10-09T07:02:32;96883.44;;;11.45;100.00
58385;BME280;44185;47.844;8.966;2023-10-09T07:04:58;96888.34;;;11.62;100.00
58385;BME280;44185;47.844;8.966;2023-10-09T07:07:24;96882.91;;;11.75;100.00
58385;BME280;44185;47.844;8.966;2023-10-09T07:09:49;96894.31;;;11.87;100.00
58385;BME280;44185;47.844;8.966;2023-10-09T07:12:15;96898.38;;;12.02;100.00
58385;BME280;44185;47.844;8.966;2023-10-09T07:14:40;96888.00;;;12.22;100.00
58385;BME280;44185;47.844;8.966;2023-10-09T07:17:07;96898.03;;;12.40;100.00
58385;BME280;44185;47.844;8.966;2023-10-09T07:19:33;96895.78;;;12.57;100.00
58385;BME280;44185;47.844;8.966;2023-10-09T07:21:59;96899.81;;;12.73;100.00
58385;BME280;44185;47.844;8.966;2023-10-09T07:24:25;96902.56;;;12.93;100.00
58385;BME280;44185;47.844;8.966;2023-10-09T07:26:50;96903.94;;;13.08;100.00
58385;BME280;44185;47.844;8.966;2023-10-09T07:29:16;96904.88;;;13.29;100.00
58385;BME280;44185;47.844;8.966;2023-10-09T07:31:42;96906.34;;;13.43;100.00
58385;BME280;44185;47.844;8.966;2023-10-09T07:34:07;96912.41;;;13.55;100.00
58385;BME280;44185;47.844;8.966;2023-10-09T07:36:33;96908.56;;;13.69;100.00
58385;BME280;44185;47.844;8.966;2023-10-09T07:39:00;96901.56;;;13.78;100.00
58385;BME280;44185;47.844;8.966;2023-10-09T07:41:32;96905.66;;;13.92;100.00
58385;BME280;44185;47.844;8.966;2023-10-09T07:43:57;96902.31;;;14.10;100.00
58385;BME280;44185;47.844;8.966;2023-10-09T07:46:23;96899.13;;;14.26;100.00
58385;BME280;44185;47.844;8.966;2023-10-09T07:48:48;96899.94;;;14.46;100.00
58385;BME280;44185;47.844;8.966;2023-10-09T07:51:14;96908.78;;;14.67;100.00
58385;BME280;44185;47.844;8.966;2023-10-09T07:53:40;96905.81;;;14.80;100.00
58385;BME280;44185;47.844;8.966;2023-10-09T07:56:07;96912.53;;;15.04;100.00
58385;BME280;44185;47.844;8.966;2023-10-09T07:58:33;96910.97;;;15.11;100.00
58385;BME280;44185;47.844;8.966;2023-10-09T08:00:58;96918.53;;;15.16;100.00
58385;BME280;44185;47.844;8.966;2023-10-09T08:03:24;96906.28;;;15.23;100.00
58385;BME280;44185;47.844;8.966;2023-10-09T08:05:49;96919.63;;;15.33;100.00
58385;BME280;44185;47.844;8.966;2023-10-09T08:08:15;96918.28;;;15.48;100.00
58385;BME280;44185;47.844;8.966;2023-10-09T08:10:40;96919.53;;;15.53;100.00
58385;BME280;44185;47.844;8.966;2023-10-09T08:13:07;96924.81;;;15.63;100.00
58385;BME280;44185;47.844;8.966;2023-10-09T08:15:33;96925.31;;;15.77;100.00
58385;BME280;44185;47.844;8.966;2023-10-09T08:17:58;96931.16;;;15.90;99.73
58385;BME280;44185;47.844;8.966;2023-10-09T08:20:24;96933.22;;;15.97;98.10
58385;BME280;44185;47.844;8.966;2023-10-09T08:22:51;96932.09;;;15.99;98.10
58385;BME280;44185;47.844;8.966;2023-10-09T08:25:17;96926.88;;;15.98;96.66
58385;BME280;44185;47.844;8.966;2023-10-09T08:27:43;96935.56;;;16.10;96.13
58385;BME280;44185;47.844;8.966;2023-10-09T08:30:10;96933.06;;;16.27;98.31
58385;BME280;44185;47.844;8.966;2023-10-09T08:32:35;96927.03;;;16.43;97.75
58385;BME280;44185;47.844;8.966;2023-10-09T08:35:01;96921.63;;;16.53;96.31
58385;BME280;44185;47.844;8.966;2023-10-09T08:37:26;96924.31;;;16.53;94.43
58385;BME280;44185;47.844;8.966;2023-10-09T08:39:52;96930.50;;;16.53;94.67
58385;BME280;44185;47.844;8.966;2023-10-09T08:42:18;96930.69;;;16.60;92.94
58385;BME280;44185;47.844;8.966;2023-10-09T08:44:44;96931.63;;;16.69;93.55
58385;BME280;44185;47.844;8.966;2023-10-09T08:47:11;96931.38;;;16.81;92.71
58385;BME280;44185;47.844;8.966;2023-10-09T08:49:37;96934.56;;;16.84;92.66
58385;BME280;44185;47.844;8.966;2023-10-09T08:52:04;96930.75;;;16.87;93.09
58385;BME280;44185;47.844;8.966;2023-10-09T08:54:29;96926.16;;;16.97;90.86
58385;BME280;44185;47.844;8.966;2023-10-09T08:56:55;96924.38;;;17.06;92.06
58385;BME280;44185;47.844;8.966;2023-10-09T08:59:21;96922.88;;;17.12;91.17
58385;BME280;44185;47.844;8.966;2023-10-09T09:01:47;96920.69;;;17.07;89.13
58385;BME280;44185;47.844;8.966;2023-10-09T09:04:35;96923.59;;;17.14;90.41
58385;BME280;44185;47.844;8.966;2023-10-09T09:07:01;96921.41;;;17.36;88.58
58385;BME280;44185;47.844;8.966;2023-10-09T09:09:26;96923.50;;;17.51;89.45
58385;BME280;44185;47.844;8.966;2023-10-09T09:11:51;96920.88;;;17.59;86.70
58385;BME280;44185;47.844;8.966;2023-10-09T09:14:17;96919.41;;;17.73;87.14
58385;BME280;44185;47.844;8.966;2023-10-09T09:16:42;96916.44;;;17.85;84.00
58385;BME280;44185;47.844;8.966;2023-10-09T09:19:08;96916.81;;;17.98;82.63
58385;BME280;44185;47.844;8.966;2023-10-09T09:21:36;96913.53;;;18.21;84.77
58385;BME280;44185;47.844;8.966;2023-10-09T09:24:01;96917.72;;;18.24;80.37
58385;BME280;44185;47.844;8.966;2023-10-09T09:26:35;96911.91;;;18.37;79.79
58385;BME280;44185;47.844;8.966;2023-10-09T09:29:00;96909.72;;;18.41;79.14
58385;BME280;44185;47.844;8.966;2023-10-09T09:31:26;96909.72;;;18.41;79.49
58385;BME280;44185;47.844;8.966;2023-10-09T09:33:56;96913.06;;;18.43;79.76
58385;BME280;44185;47.844;8.966;2023-10-09T09:36:21;96914.91;;;18.42;77.66
58385;BME280;44185;47.844;8.966;2023-10-09T09:38:48;96916.09;;;18.48;78.40
58385;BME280;44185;47.844;8.966;2023-10-09T09:41:15;96908.25;;;18.55;78.31
58385;BME280;44185;47.844;8.966;2023-10-09T09:43:40;96917.94;;;18.64;77.72
58385;BME280;44185;47.844;8.966;2023-10-09T09:46:07;96912.78;;;18.63;76.62
58385;BME280;44185;47.844;8.966;2023-10-09T09:48:37;96912.25;;;18.67;77.77
58385;BME280;44185;47.844;8.966;2023-10-09T09:51:03;96911.09;;;18.62;74.84
58385;BME280;44185;47.844;8.966;2023-10-09T09:53:28;96917.28;;;18.71;74.60
58385;BME280;44185;47.844;8.966;2023-10-09T09:55:55;96915.94;;;18.75;75.81
58385;BME280;44185;47.844;8.966;2023-10-09T09:58:21;96914.94;;;18.84;75.25
58385;BME280;44185;47.844;8.966;2023-10-09T10:00:47;96914.75;;;18.94;75.22
58385;BME280;44185;47.844;8.966;2023-10-09T10:03:19;96921.78;;;18.95;76.72
58385;BME280;44185;47.844;8.966;2023-10-09T10:05:47;96915.56;;;19.03;74.67
58385;BME280;44185;47.844;8.966;2023-10-09T10:08:16;96921.63;;;19.22;75.57
58385;BME280;44185;47.844;8.966;2023-10-09T10:10:42;96914.75;;;19.19;72.20
58385;BME280;44185;47.844;8.966;2023-10-09T10:13:09;96926.44;;;19.35;73.84
58385;BME280;44185;47.844;8.966;2023-10-09T10:15:58;96923.59;;;19.45;73.09
58385;BME280;44185;47.844;8.966;2023-10-09T10:18:24;96927.25;;;19.52;72.66
58385;BME280;44185;47.844;8.966;2023-10-09T10:21:10;96931.25;;;19.56;72.21
58385;BME280;44185;47.844;8.966;2023-10-09T10:23:36;96928.56;;;19.56;73.00
58385;BME280;44185;47.844;8.966;2023-10-09T10:26:16;96919.72;;;19.56;72.38
58385;BME280;44185;47.844;8.966;2023-10-09T10:28:43;96917.69;;;19.58;72.51
58385;BME280;44185;47.844;8.966;2023-10-09T10:31:08;96931.09;;;19.58;72.25
58385;BME280;44185;47.844;8.966;2023-10-09T10:34:04;96922.00;;;19.59;71.44
58385;BME280;44185;47.844;8.966;2023-10-09T10:36:29;96920.84;;;19.62;71.40
58385;BME280;44185;47.844;8.966;2023-10-09T10:38:59;96922.53;;;19.63;71.76
58385;BME280;44185;47.844;8.966;2023-10-09T10:41:25;96927.53;;;19.74;72.19
58385;BME280;44185;47.844;8.966;2023-10-09T10:43:52;96927.00;;;19.79;72.10
58385;BME280;44185;47.844;8.966;2023-10-09T10:46:18;96932.84;;;19.83;72.14
58385;BME280;44185;47.844;8.966;2023-10-09T10:48:44;96932.84;;;19.83;72.04
58385;BME280;44185;47.844;8.966;2023-10-09T10:51:10;96921.78;;;19.77;71.25
58385;BME280;44185;47.844;8.966;2023-10-09T10:53:35;96925.81;;;19.82;71.57
58385;BME280;44185;47.844;8.966;2023-10-09T10:56:01;96923.44;;;19.87;71.14
58385;BME280;44185;47.844;8.966;2023-10-09T10:58:27;96920.59;;;19.80;70.75
58385;BME280;44185;47.844;8.966;2023-10-09T11:00:54;96922.78;;;19.85;72.73
58385;BME280;44185;47.844;8.966;2023-10-09T11:03:21;96924.84;;;19.74;71.10
58385;BME280;44185;47.844;8.966;2023-10-09T11:05:46;96921.31;;;19.74;70.93
58385;BME280;44185;47.844;8.966;2023-10-09T11:08:12;96924.44;;;19.86;73.12
58385;BME280;44185;47.844;8.966;2023-10-09T11:10:37;96921.91;;;19.93;73.35
58385;BME280;44185;47.844;8.966;2023-10-09T11:13:03;96919.53;;;19.98;73.56
58385;BME280;44185;47.844;8.966;2023-10-09T11:15:32;96917.16;;;20.03;73.05
58385;BME280;44185;47.844;8.966;2023-10-09T11:18:00;96914.16;;;19.98;73.53
58385;BME280;44185;47.844;8.966;2023-10-09T11:20:26;96908.75;;;20.06;74.01
58385;BME280;44185;47.844;8.966;2023-10-09T11:22:52;96911.56;;;20.13;73.50
58385;BME280;44185;47.844;8.966;2023-10-09T11:25:19;96907.81;;;20.22;73.69
58385;BME280;44185;47.844;8.966;2023-10-09T11:27:45;96898.97;;;20.14;73.44
58385;BME280;44185;47.844;8.966;2023-10-09T11:30:11;96897.47;;;20.11;73.47
58385;BME280;44185;47.844;8.966;2023-10-09T11:32:36;96900.47;;;20.16;73.98
58385;BME280;44185;47.844;8.966;2023-10-09T11:35:14;96897.94;;;20.15;74.80
58385;BME280;44185;47.844;8.966;2023-10-09T11:37:40;96900.81;;;20.13;73.54
58385;BME280;44185;47.844;8.966;2023-10-09T11:40:06;96900.16;;;20.11;74.16
58385;BME280;44185;47.844;8.966;2023-10-09T11:42:34;96894.28;;;20.07;74.24
58385;BME280;44185;47.844;8.966;2023-10-09T11:44:59;96884.41;;;19.99;74.12
58385;BME280;44185;47.844;8.966;2023-10-09T11:47:34;96882.91;;;19.97;74.38
58385;BME280;44185;47.844;8.966;2023-10-09T11:50:00;96879.53;;;20.03;75.23
58385;BME280;44185;47.844;8.966;2023-10-09T11:52:27;96878.50;;;20.13;75.57
58385;BME280;44185;47.844;8.966;2023-10-09T11:54:53;96888.41;;;20.12;74.92
58385;BME280;44185;47.844;8.966;2023-10-09T11:57:18;96885.59;;;19.97;74.55
58385;BME280;44185;47.844;8.966;2023-10-09T11:59:43;96879.34;;;20.05;73.94
58385;BME280;44185;47.844;8.966;2023-10-09T12:02:09;96880.50;;;20.10;74.72
58385;BME280;44185;47.844;8.966;2023-10-09T12:04:35;96883.03;;;20.12;74.56
58385;BME280;44185;47.844;8.966;2023-10-09T12:07:01;96876.47;;;20.15;74.58
58385;BME280;44185;47.844;8.966;2023-10-09T12:09:28;96872.78;;;20.07;74.82
58385;BME280;44185;47.844;8.966;2023-10-09T12:11:54;96872.28;;;20.12;74.85
58385;BME280;44185;47.844;8.966;2023-10-09T12:14:19;96873.97;;;20.13;74.57
58385;BME280;44185;47.844;8.966;2023-10-09T12:16:44;96876.00;;;20.03;74.64
58385;BME280;44185;47.844;8.966;2023-10-09T12:19:10;96870.09;;;20.07;75.80
58385;BME280;44185;47.844;8.966;2023-10-09T12:21:35;96868.06;;;20.09;75.02
58385;BME280;44185;47.844;8.966;2023-10-09T12:24:01;96861.88;;;20.09;75.02
58385;BME280;44185;47.844;8.966;2023-10-09T12:26:28;96858.34;;;20.08;75.75
58385;BME280;44185;47.844;8.966;2023-10-09T12:28:53;96857.16;;;20.11;75.78
58385;BME280;44185;47.844;8.966;2023-10-09T12:31:19;96863.06;;;20.06;75.56
58385;BME280;44185;47.844;8.966;2023-10-09T12:33:44;96857.50;;;20.08;76.02
58385;BME280;44185;47.844;8.966;2023-10-09T12:36:11;96862.69;;;20.09;76.14
58385;BME280;44185;47.844;8.966;2023-10-09T12:38:37;96853.13;;;20.07;75.35
58385;BME280;44185;47.844;8.966;2023-10-09T12:41:03;96849.19;;;19.94;74.86
58385;BME280;44185;47.844;8.966;2023-10-09T12:43:30;96854.34;;;20.04;75.82
58385;BME280;44185;47.844;8.966;2023-10-09T12:45:56;96848.16;;;20.04;76.00
58385;BME280;44185;47.844;8.966;2023-10-09T12:48:21;96849.03;;;19.96;76.20
58385;BME280;44185;47.844;8.966;2023-10-09T12:50:49;96844.47;;;19.96;75.51
58385;BME280;44185;47.844;8.966;2023-10-09T12:53:14;96842.03;;;19.86;74.34
58385;BME280;44185;47.844;8.966;2023-10-09T12:55:40;96841.31;;;19.93;74.48